sensor_id;sensor_type;location;lat;lon;timestamp;pressure;altitude;pressure_sealevel;temperature;humidity
71145;BME280;58812;47.698;17.726;2024-01-06T00:00:56;99051.31;;;6.03;92.91
71145;BME280;58812;47.698;17.726;2024-01-06T00:03:22;99045.88;;;6.05;93.14
71145;BME280;58812;47.698;17.726;2024-01-06T00:05:47;99042.69;;;6.01;93.09
71145;BME280;58812;47.698;17.726;2024-01-06T00:08:12;99048.25;;;5.98;93.67
71145;BME280;58812;47.698;17.726;2024-01-06T00:10:38;99045.25;;;5.93;94.43
71145;BME280;58812;47.698;17.726;2024-01-06T00:13:03;99041.88;;;5.91;94.46
71145;BME280;58812;47.698;17.726;2024-01-06T00:15:29;99041.03;;;5.81;95.76
71145;BME280;58812;47.698;17.726;2024-01-06T00:17:54;99038.97;;;5.75;96.32
71145;BME280;58812;47.698;17.726;2024-01-06T00:20:19;99037.72;;;5.69;95.86
71145;BME280;58812;47.698;17.726;2024-01-06T00:22:45;99035.38;;;5.66;95.05
71145;BME280;58812;47.698;17.726;2024-01-06T00:25:10;99037.09;;;5.57;95.61
71145;BME280;58812;47.698;17.726;2024-01-06T00:27:36;99037.41;;;5.45;97.61
71145;BME280;58812;47.698;17.726;2024-01-06T00:30:01;99033.37;;;5.41;97.61
71145;BME280;58812;47.698;17.726;2024-01-06T00:32:26;99036.72;;;5.43;97.20
71145;BME280;58812;47.698;17.726;2024-01-06T00:34:52;99035.88;;;5.42;97.23
71145;BME280;58812;47.698;17.726;2024-01-06T00:37:17;99033.91;;;5.44;97.23
71145;BME280;58812;47.698;17.726;2024-01-06T00:39:42;99033.91;;;5.44;97.91
71145;BME280;58812;47.698;17.726;2024-01-06T00:42:08;99032.25;;;5.43;97.50
71145;BME280;58812;47.698;17.726;2024-01-06T00:44:35;99025.00;;;5.35;97.93
71145;BME280;58812;47.698;17.726;2024-01-06T00:47:01;99029.22;;;5.28;98.94
71145;BME280;58812;47.698;17.726;2024-01-06T00:49:26;99028.66;;;5.25;99.63
71145;BME280;58812;47.698;17.726;2024-01-06T00:51:52;99030.06;;;5.29;98.95
71145;BME280;58812;47.698;17.726;2024-01-06T00:54:17;99024.28;;;5.33;98.51
71145;BME280;58812;47.698;17.726;2024-01-06T00:56:43;99028.19;;;5.39;98.11
71145;BME280;58812;47.698;17.726;2024-01-06T00:59:09;99028.59;;;5.44;97.74
71145;BME280;58812;47.698;17.726;2024-01-06T01:01:34;99030.28;;;5.45;97.49
71145;BME280;58812;47.698;17.726;2024-01-06T01:03:59;99031.66;;;5.49;97.16
71145;BME280;58812;47.698;17.726;2024-01-06T01:06:25;99028.28;;;5.57;96.83
71145;BME280;58812;47.698;17.726;2024-01-06T01:08:50;99031.09;;;5.55;96.76
71145;BME280;58812;47.698;17.726;2024-01-06T01:11:16;99027.03;;;5.51;96.63
71145;BME280;58812;47.698;17.726;2024-01-06T01:13:41;99024.25;;;5.53;96.22
71145;BME280;58812;47.698;17.726;2024-01-06T01:16:06;99024.09;;;5.54;95.91
71145;BME280;58812;47.698;17.726;2024-01-06T01:18:32;99023.84;;;5.57;95.66
71145;BME280;58812;47.698;17.726;2024-01-06T01:20:57;99029.25;;;5.66;95.21
71145;BME280;58812;47.698;17.726;2024-01-06T01:23:23;99023.19;;;5.73;94.83
71145;BME280;58812;47.698;17.726;2024-01-06T01:25:48;99030.03;;;5.76;94.52
71145;BME280;58812;47.698;17.726;2024-01-06T01:28:14;99030.12;;;5.84;93.56
71145;BME280;58812;47.698;17.726;2024-01-06T01:30:39;99017.84;;;5.83;93.41
71145;BME280;58812;47.698;17.726;2024-01-06T01:33:05;99023.44;;;5.80;93.90
71145;BME280;58812;47.698;17.726;2024-01-06T01:35:30;99022.91;;;5.76;94.45
71145;BME280;58812;47.698;17.726;2024-01-06T01:37:55;99022.19;;;5.74;94.42
71145;BME280;58812;47.698;17.726;2024-01-06T01:40:21;99017.13;;;5.81;94.35
71145;BME280;58812;47.698;17.726;2024-01-06T01:42:46;99007.38;;;5.81;94.28
71145;BME280;58812;47.698;17.726;2024-01-06T01:45:11;99010.31;;;5.78;94.37
71145;BME280;58812;47.698;17.726;2024-01-06T01:47:37;99006.16;;;5.76;94.57
71145;BME280;58812;47.698;17.726;2024-01-06T01:50:03;99000.84;;;5.76;94.54
71145;BME280;58812;47.698;17.726;2024-01-06T01:52:29;98997.19;;;5.77;94.41
71145;BME280;58812;47.698;17.726;2024-01-06T01:54:55;98999.12;;;5.75;94.41
71145;BME280;58812;47.698;17.726;2024-01-06T01:57:23;99008.09;;;5.74;94.95
71145;BME280;58812;47.698;17.726;2024-01-06T01:59:50;98997.47;;;5.74;95.33
71145;BME280;58812;47.698;17.726;2024-01-06T02:02:16;99005.44;;;5.74;95.63
71145;BME280;58812;47.698;17.726;2024-01-06T02:04:42;99000.13;;;5.74;95.72
71145;BME280;58812;47.698;17.726;2024-01-06T02:07:07;98995.53;;;5.76;95.83
71145;BME280;58812;47.698;17.726;2024-01-06T02:09:33;98998.56;;;5.81;96.61
71145;BME280;58812;47.698;17.726;2024-01-06T02:11:58;99000.00;;;5.75;96.68
71145;BME280;58812;47.698;17.726;2024-01-06T02:14:24;99001.09;;;5.82;97.67
71145;BME280;58812;47.698;17.726;2024-01-06T02:16:49;99001.47;;;5.87;97.89
71145;BME280;58812;47.698;17.726;2024-01-06T02:19:16;99004.56;;;5.83;98.09
71145;BME280;58812;47.698;17.726;2024-01-06T02:21:43;99001.34;;;5.79;99.40
71145;BME280;58812;47.698;17.726;2024-01-06T02:24:09;99005.31;;;5.75;99.70
71145;BME280;58812;47.698;17.726;2024-01-06T02:26:35;99007.56;;;5.70;100.00
71145;BME280;58812;47.698;17.726;2024-01-06T02:29:00;99002.94;;;5.72;100.00
71145;BME280;58812;47.698;17.726;2024-01-06T02:31:27;98996.94;;;5.70;100.00
71145;BME280;58812;47.698;17.726;2024-01-06T02:33:52;98994.03;;;5.63;100.00
71145;BME280;58812;47.698;17.726;2024-01-06T02:36:18;98996.97;;;5.60;100.00
71145;BME280;58812;47.698;17.726;2024-01-06T02:38:43;98988.91;;;5.52;100.00
71145;BME280;58812;47.698;17.726;2024-01-06T02:41:09;98982.22;;;5.48;100.00
71145;BME280;58812;47.698;17.726;2024-01-06T02:43:34;98977.19;;;5.45;100.00
71145;BME280;58812;47.698;17.726;2024-01-06T02:45:59;98981.81;;;5.43;100.00
71145;BME280;58812;47.698;17.726;2024-01-06T02:48:25;98987.44;;;5.40;100.00
71145;BME280;58812;47.698;17.726;2024-01-06T02:50:50;98980.56;;;5.37;100.00
71145;BME280;58812;47.698;17.726;2024-01-06T02:53:16;98981.28;;;5.40;100.00
71145;BME280;58812;47.698;17.726;2024-01-06T02:55:41;98973.03;;;5.33;100.00
71145;BME280;58812;47.698;17.726;2024-01-06T02:58:07;98968.72;;;5.32;100.00
71145;BME280;58812;47.698;17.726;2024-01-06T03:00:32;98968.03;;;5.30;100.00
71145;BME280;58812;47.698;17.726;2024-01-06T03:02:58;98978.34;;;5.33;100.00
71145;BME280;58812;47.698;17.726;2024-01-06T03:05:23;98971.69;;;5.29;100.00
71145;BME280;58812;47.698;17.726;2024-01-06T03:07:49;98978.06;;;5.36;100.00
71145;BME280;58812;47.698;17.726;2024-01-06T03:10:14;98969.81;;;5.39;100.00
71145;BME280;58812;47.698;17.726;2024-01-06T03:12:39;98969.12;;;5.37;100.00
71145;BME280;58812;47.698;17.726;2024-01-06T03:15:05;98970.94;;;5.36;100.00
71145;BME280;58812;47.698;17.726;2024-01-06T03:17:31;98961.59;;;5.32;100.00
71145;BME280;58812;47.698;17.726;2024-01-06T03:19:56;98964.41;;;5.31;100.00
71145;BME280;58812;47.698;17.726;2024-01-06T03:22:22;98957.44;;;5.30;100.00
71145;BME280;58812;47.698;17.726;2024-01-06T03:24:47;98947.09;;;5.27;100.00
71145;BME280;58812;47.698;17.726;2024-01-06T03:27:13;98947.41;;;5.24;100.00
71145;BME280;58812;47.698;17.726;2024-01-06T03:29:39;98930.09;;;5.20;100.00
71145;BME280;58812;47.698;17.726;2024-01-06T03:32:05;98929.25;;;5.19;100.00
71145;BME280;58812;47.698;17.726;2024-01-06T03:34:30;98918.22;;;5.14;100.00
71145;BME280;58812;47.698;17.726;2024-01-06T03:36:56;98919.37;;;5.12;100.00
71145;BME280;58812;47.698;17.726;2024-01-06T03:39:21;98920.34;;;5.11;100.00
71145;BME280;58812;47.698;17.726;2024-01-06T03:41:48;98918.66;;;5.09;100.00
71145;BME280;58812;47.698;17.726;2024-01-06T03:44:13;98906.09;;;5.12;100.00
71145;BME280;58812;47.698;17.726;2024-01-06T03:46:39;98916.72;;;5.12;100.00
71145;BME280;58812;47.698;17.726;2024-01-06T03:49:04;98920.22;;;5.12;100.00
71145;BME280;58812;47.698;17.726;2024-01-06T03:51:30;98917.72;;;5.11;100.00
71145;BME280;58812;47.698;17.726;2024-01-06T03:53:55;98922.03;;;5.12;100.00
71145;BME280;58812;47.698;17.726;2024-01-06T03:56:20;98923.69;;;5.13;100.00
71145;BME280;58812;47.698;17.726;2024-01-06T03:58:46;98919.78;;;5.17;100.00
71145;BME280;58812;47.698;17.726;2024-01-06T04:01:11;98924.78;;;5.20;100.00
71145;BME280;58812;47.698;17.726;2024-01-06T04:03:38;98929.81;;;5.23;100.00
71145;BME280;58812;47.698;17.726;2024-01-06T04:06:05;98922.53;;;5.25;100.00
71145;BME280;58812;47.698;17.726;2024-01-06T04:08:31;98932.72;;;5.29;100.00
71145;BME280;58812;47.698;17.726;2024-01-06T04:10:56;98927.25;;;5.31;100.00
71145;BME280;58812;47.698;17.726;2024-01-06T04:13:22;98922.62;;;5.33;100.00
71145;BME280;58812;47.698;17.726;2024-01-06T04:15:50;98921.66;;;5.34;100.00
71145;BME280;58812;47.698;17.726;2024-01-06T04:18:15;98911.34;;;5.31;100.00
71145;BME280;58812;47.698;17.726;2024-01-06T04:20:41;98915.22;;;5.36;100.00
71145;BME280;58812;47.698;17.726;2024-01-06T04:23:06;98913.56;;;5.35;100.00
71145;BME280;58812;47.698;17.726;2024-01-06T04:25:31;98919.69;;;5.36;100.00
71145;BME280;58812;47.698;17.726;2024-01-06T04:27:57;98921.34;;;5.37;100.00
71145;BME280;58812;47.698;17.726;2024-01-06T04:30:22;98914.38;;;5.36;100.00
71145;BME280;58812;47.698;17.726;2024-01-06T04:32:49;98921.19;;;5.39;100.00
71145;BME280;58812;47.698;17.726;2024-01-06T04:35:15;98918.44;;;5.40;100.00
71145;BME280;58812;47.698;17.726;2024-01-06T04:37:40;98922.59;;;5.43;100.00
71145;BME280;58812;47.698;17.726;2024-01-06T04:40:06;98931.38;;;5.43;100.00
71145;BME280;58812;47.698;17.726;2024-01-06T04:42:33;98925.09;;;5.44;100.00
71145;BME280;58812;47.698;17.726;2024-01-06T04:44:58;98930.28;;;5.46;100.00
71145;BME280;58812;47.698;17.726;2024-01-06T04:47:24;98928.59;;;5.45;100.00
71145;BME280;58812;47.698;17.726;2024-01-06T04:49:50;98932.06;;;5.45;100.00
71145;BME280;58812;47.698;17.726;2024-01-06T04:52:15;98934.72;;;5.45;100.00
71145;BME280;58812;47.698;17.726;2024-01-06T04:54:40;98933.06;;;5.44;100.00
71145;BME280;58812;47.698;17.726;2024-01-06T04:57:06;98937.38;;;5.45;100.00
71145;BME280;58812;47.698;17.726;2024-01-06T04:59:31;98942.56;;;5.47;100.00
71145;BME280;58812;47.698;17.726;2024-01-06T05:02:00;98937.09;;;5.48;100.00
71145;BME280;58812;47.698;17.726;2024-01-06T05:04:26;98936.09;;;5.49;100.00
71145;BME280;58812;47.698;17.726;2024-01-06T05:06:51;98941.41;;;5.49;100.00
71145;BME280;58812;47.698;17.726;2024-01-06T05:09:17;98945.91;;;5.49;100.00
71145;BME280;58812;47.698;17.726;2024-01-06T05:11:45;98946.72;;;5.49;100.00
71145;BME280;58812;47.698;17.726;2024-01-06T05:14:11;98947.56;;;5.50;100.00
71145;BME280;58812;47.698;17.726;2024-01-06T05:16:36;98947.28;;;5.53;100.00
71145;BME280;58812;47.698;17.726;2024-01-06T05:19:02;98959.41;;;5.55;100.00
71145;BME280;58812;47.698;17.726;2024-01-06T05:21:28;98964.44;;;5.58;100.00
71145;BME280;58812;47.698;17.726;2024-01-06T05:23:53;98967.69;;;5.52;100.00
71145;BME280;58812;47.698;17.726;2024-01-06T05:26:19;98978.88;;;5.46;100.00
71145;BME280;58812;47.698;17.726;2024-01-06T05:28:44;98962.72;;;5.40;100.00
71145;BME280;58812;47.698;17.726;2024-01-06T05:31:10;98978.47;;;5.41;100.00
71145;BME280;58812;47.698;17.726;2024-01-06T05:33:35;98983.06;;;5.39;100.00
71145;BME280;58812;47.698;17.726;2024-01-06T05:36:01;98979.75;;;5.37;100.00
71145;BME280;58812;47.698;17.726;2024-01-06T05:38:27;98981.72;;;5.35;100.00
71145;BME280;58812;47.698;17.726;2024-01-06T05:40:52;98979.19;;;5.33;100.00
71145;BME280;58812;47.698;17.726;2024-01-06T05:43:18;98981.16;;;5.31;100.00
71145;BME280;58812;47.698;17.726;2024-01-06T05:45:43;98983.12;;;5.29;100.00
71145;BME280;58812;47.698;17.726;2024-01-06T05:48:09;98975.59;;;5.25;100.00
71145;BME280;58812;47.698;17.726;2024-01-06T05:50:35;98977.56;;;5.23;100.00
71145;BME280;58812;47.698;17.726;2024-01-06T05:53:00;98968.22;;;5.19;100.00
71145;BME280;58812;47.698;17.726;2024-01-06T05:55:26;98967.53;;;5.17;100.00
71145;BME280;58812;47.698;17.726;2024-01-06T05:57:51;98965.84;;;5.16;100.00
71145;BME280;58812;47.698;17.726;2024-01-06T06:00:17;98960.84;;;5.13;100.00
71145;BME280;58812;47.698;17.726;2024-01-06T06:02:42;98961.81;;;5.12;100.00
71145;BME280;58812;47.698;17.726;2024-01-06T06:05:08;98955.78;;;5.09;100.00
71145;BME280;58812;47.698;17.726;2024-01-06T06:07:33;98963.63;;;5.11;100.00
71145;BME280;58812;47.698;17.726;2024-01-06T06:10:05;98954.97;;;5.09;100.00
71145;BME280;58812;47.698;17.726;2024-01-06T06:12:31;98964.75;;;5.08;100.00
71145;BME280;58812;47.698;17.726;2024-01-06T06:14:57;98957.75;;;5.07;100.00
71145;BME280;58812;47.698;17.726;2024-01-06T06:17:22;98955.25;;;5.06;100.00
71145;BME280;58812;47.698;17.726;2024-01-06T06:19:48;98962.50;;;5.04;100.00
71145;BME280;58812;47.698;17.726;2024-01-06T06:22:13;98961.69;;;5.03;100.00
71145;BME280;58812;47.698;17.726;2024-01-06T06:24:38;98966.03;;;5.04;100.00
71145;BME280;58812;47.698;17.726;2024-01-06T06:27:04;98973.84;;;5.06;100.00
71145;BME280;58812;47.698;17.726;2024-01-06T06:29:29;98980.81;;;5.07;100.00
71145;BME280;58812;47.698;17.726;2024-01-06T06:31:55;98982.31;;;5.09;100.00
71145;BME280;58812;47.698;17.726;2024-01-06T06:34:20;98971.03;;;5.07;100.00
71145;BME280;58812;47.698;17.726;2024-01-06T06:36:46;98976.06;;;5.11;100.00
71145;BME280;58812;47.698;17.726;2024-01-06T06:39:11;98983.88;;;5.12;100.00
71145;BME280;58812;47.698;17.726;2024-01-06T06:41:36;98982.06;;;5.13;100.00
71145;BME280;58812;47.698;17.726;2024-01-06T06:44:02;98990.69;;;5.15;100.00
71145;BME280;58812;47.698;17.726;2024-01-06T06:46:27;98982.88;;;5.13;100.00
71145;BME280;58812;47.698;17.726;2024-01-06T06:48:53;98987.34;;;5.13;100.00
71145;BME280;58812;47.698;17.726;2024-01-06T06:51:18;98986.38;;;5.14;100.00
71145;BME280;58812;47.698;17.726;2024-01-06T06:53:43;98984.56;;;5.14;100.00
71145;BME280;58812;47.698;17.726;2024-01-06T06:56:09;98986.09;;;5.17;100.00
71145;BME280;58812;47.698;17.726;2024-01-06T06:58:34;98994.91;;;5.17;100.00
71145;BME280;58812;47.698;17.726;2024-01-06T07:01:00;98999.06;;;5.20;100.00
71145;BME280;58812;47.698;17.726;2024-01-06T07:03:26;99000.16;;;5.27;100.00
71145;BME280;58812;47.698;17.726;2024-01-06T07:05:52;99001.84;;;5.28;100.00
71145;BME280;58812;47.698;17.726;2024-01-06T07:08:17;98999.06;;;5.29;100.00
71145;BME280;58812;47.698;17.726;2024-01-06T07:10:43;99003.53;;;5.29;100.00
71145;BME280;58812;47.698;17.726;2024-01-06T07:13:08;99008.69;;;5.30;100.00
71145;BME280;58812;47.698;17.726;2024-01-06T07:15:34;99015.50;;;5.33;100.00
71145;BME280;58812;47.698;17.726;2024-01-06T07:17:59;99016.47;;;5.32;100.00
71145;BME280;58812;47.698;17.726;2024-01-06T07:20:24;99016.91;;;5.37;100.00
71145;BME280;58812;47.698;17.726;2024-01-06T07:22:50;99011.59;;;5.37;100.00
71145;BME280;58812;47.698;17.726;2024-01-06T07:25:15;99014.81;;;5.31;100.00
71145;BME280;58812;47.698;17.726;2024-01-06T07:27:41;99019.28;;;5.40;100.00
71145;BME280;58812;47.698;17.726;2024-01-06T07:30:06;99016.91;;;5.37;100.00
71145;BME280;58812;47.698;17.726;2024-01-06T07:32:35;99008.25;;;5.35;100.00
71145;BME280;58812;47.698;17.726;2024-01-06T07:35:00;99007.12;;;5.37;100.00
71145;BME280;58812;47.698;17.726;2024-01-06T07:37:27;99001.41;;;5.32;100.00
71145;BME280;58812;47.698;17.726;2024-01-06T07:39:52;99000.16;;;5.27;100.00
71145;BME280;58812;47.698;17.726;2024-01-06T07:42:18;98996.81;;;5.25;100.00
71145;BME280;58812;47.698;17.726;2024-01-06T07:44:43;98991.09;;;5.20;100.00
71145;BME280;58812;47.698;17.726;2024-01-06T07:47:09;98994.75;;;5.19;100.00
71145;BME280;58812;47.698;17.726;2024-01-06T07:49:35;98996.25;;;5.21;100.00
71145;BME280;58812;47.698;17.726;2024-01-06T07:52:00;98999.38;;;5.17;100.00
71145;BME280;58812;47.698;17.726;2024-01-06T07:54:26;99006.34;;;5.18;100.00
71145;BME280;58812;47.698;17.726;2024-01-06T07:56:52;98999.78;;;5.22;100.00
71145;BME280;58812;47.698;17.726;2024-01-06T07:59:17;98985.78;;;5.20;100.00
71145;BME280;58812;47.698;17.726;2024-01-06T08:01:43;98976.44;;;5.16;100.00
71145;BME280;58812;47.698;17.726;2024-01-06T08:04:08;98978.97;;;5.17;100.00
71145;BME280;58812;47.698;17.726;2024-01-06T08:06:34;98982.63;;;5.16;100.00
71145;BME280;58812;47.698;17.726;2024-01-06T08:09:00;98978.13;;;5.17;100.00
71145;BME280;58812;47.698;17.726;2024-01-06T08:11:25;98990.94;;;5.21;100.00
71145;BME280;58812;47.698;17.726;2024-01-06T08:13:50;98990.53;;;5.26;100.00
71145;BME280;58812;47.698;17.726;2024-01-06T08:16:18;98992.34;;;5.25;100.00
71145;BME280;58812;47.698;17.726;2024-01-06T08:18:43;98992.34;;;5.25;100.00
71145;BME280;58812;47.698;17.726;2024-01-06T08:21:10;98989.28;;;5.20;100.00
71145;BME280;58812;47.698;17.726;2024-01-06T08:23:36;98990.94;;;5.21;100.00
71145;BME280;58812;47.698;17.726;2024-01-06T08:26:01;98994.47;;;5.22;100.00
71145;BME280;58812;47.698;17.726;2024-01-06T08:28:27;98990.84;;;5.23;100.00
71145;BME280;58812;47.698;17.726;2024-01-06T08:30:52;98989.84;;;5.24;100.00
71145;BME280;58812;47.698;17.726;2024-01-06T08:33:18;98995.16;;;5.24;100.00
71145;BME280;58812;47.698;17.726;2024-01-06T08:35:44;98996.81;;;5.25;100.00
71145;BME280;58812;47.698;17.726;2024-01-06T08:38:09;98998.50;;;5.26;100.00
71145;BME280;58812;47.698;17.726;2024-01-06T08:40:35;98998.50;;;5.26;100.00
71145;BME280;58812;47.698;17.726;2024-01-06T08:43:01;98998.50;;;5.26;100.00
71145;BME280;58812;47.698;17.726;2024-01-06T08:45:26;98999.31;;;5.26;100.00
71145;BME280;58812;47.698;17.726;2024-01-06T08:47:52;99002.13;;;5.25;100.00
71145;BME280;58812;47.698;17.726;2024-01-06T08:50:17;99004.50;;;5.28;100.00
71145;BME280;58812;47.698;17.726;2024-01-06T08:52:43;99004.78;;;5.25;100.00
71145;BME280;58812;47.698;17.726;2024-01-06T08:55:08;99000.47;;;5.24;100.00
71145;BME280;58812;47.698;17.726;2024-01-06T08:57:34;98992.66;;;5.22;100.00
71145;BME280;58812;47.698;17.726;2024-01-06T08:59:59;98981.22;;;5.22;100.00
71145;BME280;58812;47.698;17.726;2024-01-06T09:02:24;98995.16;;;5.24;100.00
71145;BME280;58812;47.698;17.726;2024-01-06T09:04:50;98985.38;;;5.24;100.00
71145;BME280;58812;47.698;17.726;2024-01-06T09:07:15;98989.84;;;5.24;100.00
71145;BME280;58812;47.698;17.726;2024-01-06T09:09:42;98990.69;;;5.24;100.00
71145;BME280;58812;47.698;17.726;2024-01-06T09:12:08;98999.31;;;5.26;100.00
71145;BME280;58812;47.698;17.726;2024-01-06T09:14:33;99000.88;;;5.29;100.00
71145;BME280;58812;47.698;17.726;2024-01-06T09:16:59;99001.56;;;5.31;100.00
71145;BME280;58812;47.698;17.726;2024-01-06T09:19:24;99001.41;;;5.32;100.00
71145;BME280;58812;47.698;17.726;2024-01-06T09:21:50;99009.91;;;5.36;100.00
71145;BME280;58812;47.698;17.726;2024-01-06T09:24:15;99009.63;;;5.39;100.00
71145;BME280;58812;47.698;17.726;2024-01-06T09:26:41;99007.81;;;5.40;100.00
71145;BME280;58812;47.698;17.726;2024-01-06T09:29:06;99015.47;;;5.43;100.00
71145;BME280;58812;47.698;17.726;2024-01-06T09:31:32;99015.06;;;5.47;100.00
71145;BME280;58812;47.698;17.726;2024-01-06T09:34:00;99014.06;;;5.48;100.00
71145;BME280;58812;47.698;17.726;2024-01-06T09:36:27;99003.16;;;5.51;100.00
71145;BME280;58812;47.698;17.726;2024-01-06T09:38:52;99011.00;;;5.53;100.00
71145;BME280;58812;47.698;17.726;2024-01-06T09:41:17;99002.31;;;5.51;100.00
71145;BME280;58812;47.698;17.726;2024-01-06T09:43:43;99014.31;;;5.55;100.00
71145;BME280;58812;47.698;17.726;2024-01-06T09:46:24;99010.94;;;5.62;100.00
71145;BME280;58812;47.698;17.726;2024-01-06T09:48:53;99009.91;;;5.73;100.00
71145;BME280;58812;47.698;17.726;2024-01-06T09:51:20;99014.62;;;5.79;100.00
71145;BME280;58812;47.698;17.726;2024-01-06T09:53:53;98998.56;;;5.81;100.00
71145;BME280;58812;47.698;17.726;2024-01-06T09:56:22;99009.72;;;5.84;100.00
71145;BME280;58812;47.698;17.726;2024-01-06T09:58:49;99021.84;;;8.50;100.00
71145;BME280;58812;47.698;17.726;2024-01-06T10:01:15;99021.03;;;9.95;100.00
71145;BME280;58812;47.698;17.726;2024-01-06T10:03:42;99018.25;;;10.81;100.00
71145;BME280;58812;47.698;17.726;2024-01-06T10:06:07;99026.53;;;11.85;100.00
71145;BME280;58812;47.698;17.726;2024-01-06T10:08:35;99027.19;;;12.52;100.00
71145;BME280;58812;47.698;17.726;2024-01-06T10:11:00;99020.41;;;12.56;100.00
71145;BME280;58812;47.698;17.726;2024-01-06T10:13:26;99023.09;;;12.06;100.00
71145;BME280;58812;47.698;17.726;2024-01-06T10:15:54;99021.28;;;13.00;100.00
71145;BME280;58812;47.698;17.726;2024-01-06T10:18:20;99016.66;;;13.65;99.57
71145;BME280;58812;47.698;17.726;2024-01-06T10:20:45;99017.84;;;13.90;96.60
71145;BME280;58812;47.698;17.726;2024-01-06T10:23:11;99017.31;;;13.45;99.98
71145;BME280;58812;47.698;17.726;2024-01-06T10:25:36;99017.34;;;13.80;92.80
71145;BME280;58812;47.698;17.726;2024-01-06T10:28:02;99006.34;;;14.09;90.43
71145;BME280;58812;47.698;17.726;2024-01-06T10:30:28;99011.09;;;13.17;94.21
71145;BME280;58812;47.698;17.726;2024-01-06T10:32:54;99006.91;;;13.14;93.99
71145;BME280;58812;47.698;17.726;2024-01-06T10:35:19;99008.84;;;13.42;90.21
71145;BME280;58812;47.698;17.726;2024-01-06T10:37:45;99011.84;;;11.28;93.37
71145;BME280;58812;47.698;17.726;2024-01-06T10:40:12;99000.28;;;10.05;100.00
71145;BME280;58812;47.698;17.726;2024-01-06T10:42:38;98990.88;;;9.14;100.00
71145;BME280;58812;47.698;17.726;2024-01-06T10:45:09;98987.31;;;8.40;100.00
71145;BME280;58812;47.698;17.726;2024-01-06T10:47:36;98989.28;;;7.88;100.00
71145;BME280;58812;47.698;17.726;2024-01-06T10:50:02;98984.63;;;7.47;100.00
71145;BME280;58812;47.698;17.726;2024-01-06T10:52:28;98986.09;;;7.16;100.00
71145;BME280;58812;47.698;17.726;2024-01-06T10:54:54;98978.69;;;7.02;100.00
71145;BME280;58812;47.698;17.726;2024-01-06T10:57:20;98980.13;;;6.96;100.00
71145;BME280;58812;47.698;17.726;2024-01-06T10:59:49;98976.72;;;6.86;100.00
71145;BME280;58812;47.698;17.726;2024-01-06T11:02:15;98965.69;;;6.81;100.00
71145;BME280;58812;47.698;17.726;2024-01-06T11:04:46;98972.19;;;6.78;100.00
71145;BME280;58812;47.698;17.726;2024-01-06T11:07:13;98962.81;;;6.74;100.00
71145;BME280;58812;47.698;17.726;2024-01-06T11:10:05;98962.81;;;6.74;100.00
71145;BME280;58812;47.698;17.726;2024-01-06T11:12:30;98961.62;;;6.68;100.00
71145;BME280;58812;47.698;17.726;2024-01-06T11:14:56;98959.94;;;6.67;100.00
71145;BME280;58812;47.698;17.726;2024-01-06T11:20:26;98949.25;;;6.59;100.00
71145;BME280;58812;47.698;17.726;2024-01-06T11:22:52;98946.22;;;6.54;100.00
71145;BME280;58812;47.698;17.726;2024-01-06T11:25:22;98948.56;;;6.57;100.00
71145;BME280;58812;47.698;17.726;2024-01-06T11:27:48;98942.41;;;6.57;100.00
71145;BME280;58812;47.698;17.726;2024-01-06T11:30:27;98956.19;;;6.52;100.00
71145;BME280;58812;47.698;17.726;2024-01-06T11:32:56;98945.56;;;6.52;100.00
71145;BME280;58812;47.698;17.726;2024-01-06T11:35:26;98955.63;;;6.49;100.00
71145;BME280;58812;47.698;17.726;2024-01-06T11:37:57;98949.16;;;6.51;100.00
71145;BME280;58812;47.698;17.726;2024-01-06T11:40:31;98947.22;;;6.53;100.00
71145;BME280;58812;47.698;17.726;2024-01-06T11:43:07;98947.22;;;6.53;100.00
71145;BME280;58812;47.698;17.726;2024-01-06T11:45:34;98938.25;;;6.54;100.00
71145;BME280;58812;47.698;17.726;2024-01-06T11:48:05;98941.75;;;6.55;100.00
71145;BME280;58812;47.698;17.726;2024-01-06T11:50:33;98936.88;;;6.50;100.00
71145;BME280;58812;47.698;17.726;2024-01-06T11:52:59;98937.41;;;6.54;100.00
71145;BME280;58812;47.698;17.726;2024-01-06T11:55:27;98932.72;;;6.48;100.00
71145;BME280;58812;47.698;17.726;2024-01-06T11:58:00;98930.50;;;6.43;100.00
71145;BME280;58812;47.698;17.726;2024-01-06T12:00:34;98929.13;;;6.39;100.00
71145;BME280;58812;47.698;17.726;2024-01-06T12:03:01;98931.41;;;6.34;100.00
71145;BME280;58812;47.698;17.726;2024-01-06T12:05:27;98929.56;;;6.34;100.00
71145;BME280;58812;47.698;17.726;2024-01-06T12:07:55;98937.88;;;6.31;100.00
71145;BME280;58812;47.698;17.726;2024-01-06T12:10:22;98932.00;;;6.28;100.00
71145;BME280;58812;47.698;17.726;2024-01-06T12:13:00;98928.53;;;6.27;100.00
71145;BME280;58812;47.698;17.726;2024-01-06T12:15:28;98933.37;;;6.32;100.00
71145;BME280;58812;47.698;17.726;2024-01-06T12:17:54;98929.75;;;6.33;100.00
71145;BME280;58812;47.698;17.726;2024-01-06T12:20:21;98930.34;;;6.27;100.00
71145;BME280;58812;47.698;17.726;2024-01-06T12:22:46;98923.97;;;6.20;100.00
71145;BME280;58812;47.698;17.726;2024-01-06T12:25:14;98930.97;;;6.21;100.00
71145;BME280;58812;47.698;17.726;2024-01-06T12:27:44;98923.97;;;6.20;100.00
71145;BME280;58812;47.698;17.726;2024-01-06T12:30:18;98927.31;;;6.22;100.00
71145;BME280;58812;47.698;17.726;2024-01-06T12:32:47;98925.97;;;6.18;100.00
71145;BME280;58812;47.698;17.726;2024-01-06T12:35:17;98931.88;;;6.11;100.00
71145;BME280;58812;47.698;17.726;2024-01-06T12:37:43;98919.72;;;6.09;100.00
71145;BME280;58812;47.698;17.726;2024-01-06T12:40:11;98919.56;;;6.10;100.00
71145;BME280;58812;47.698;17.726;2024-01-06T12:42:37;98920.16;;;6.04;100.00
71145;BME280;58812;47.698;17.726;2024-01-06T12:45:03;98931.34;;;6.08;100.00
71145;BME280;58812;47.698;17.726;2024-01-06T12:47:28;98920.69;;;6.08;100.00
71145;BME280;58812;47.698;17.726;2024-01-06T12:49:54;98909.25;;;6.07;100.00